sensor_id;sensor_type;location;lat;lon;timestamp;temperature;humidity
16700;DHT22;8466;52.286;21.124;2022-12-10T00:00:00;0.90;99.90
16700;DHT22;8466;52.286;21.124;2022-12-10T00:08:34;0.90;99.90
16700;DHT22;8466;52.286;21.124;2022-12-10T00:11:04;0.90;99.90
16700;DHT22;8466;52.286;21.124;2022-12-10T00:13:35;0.90;99.90
16700;DHT22;8466;52.286;21.124;2022-12-10T00:16:07;0.90;99.90
16700;DHT22;8466;52.286;21.124;2022-12-10T00:18:37;0.90;99.90
16700;DHT22;8466;52.286;21.124;2022-12-10T00:21:10;0.90;99.90
16700;DHT22;8466;52.286;21.124;2022-12-10T00:23:40;0.90;99.90
16700;DHT22;8466;52.286;21.124;2022-12-10T00:26:10;1.10;99.90
16700;DHT22;8466;52.286;21.124;2022-12-10T00:28:42;0.90;99.90
16700;DHT22;8466;52.286;21.124;2022-12-10T00:31:13;0.90;99.90
16700;DHT22;8466;52.286;21.124;2022-12-10T00:33:43;0.90;99.90
16700;DHT22;8466;52.286;21.124;2022-12-10T00:36:14;0.90;99.90
16700;DHT22;8466;52.286;21.124;2022-12-10T00:38:43;0.90;99.90
16700;DHT22;8466;52.286;21.124;2022-12-10T00:41:13;0.90;99.90
16700;DHT22;8466;52.286;21.124;2022-12-10T00:43:44;1.10;99.90
16700;DHT22;8466;52.286;21.124;2022-12-10T00:46:14;0.90;99.90
16700;DHT22;8466;52.286;21.124;2022-12-10T00:48:43;0.80;99.90
16700;DHT22;8466;52.286;21.124;2022-12-10T00:51:15;0.80;99.90
16700;DHT22;8466;52.286;21.124;2022-12-10T00:53:44;0.80;99.90
16700;DHT22;8466;52.286;21.124;2022-12-10T00:56:15;0.80;99.90
16700;DHT22;8466;52.286;21.124;2022-12-10T00:58:47;0.90;99.90
16700;DHT22;8466;52.286;21.124;2022-12-10T01:01:18;0.90;99.90
16700;DHT22;8466;52.286;21.124;2022-12-10T01:03:49;0.90;99.90
16700;DHT22;8466;52.286;21.124;2022-12-10T01:06:21;0.90;99.90
16700;DHT22;8466;52.286;21.124;2022-12-10T01:08:51;0.90;99.90
16700;DHT22;8466;52.286;21.124;2022-12-10T01:11:21;0.90;99.90
16700;DHT22;8466;52.286;21.124;2022-12-10T01:13:52;0.90;99.90
16700;DHT22;8466;52.286;21.124;2022-12-10T01:16:21;0.90;99.90
16700;DHT22;8466;52.286;21.124;2022-12-10T01:18:52;1.00;99.90
16700;DHT22;8466;52.286;21.124;2022-12-10T01:21:22;0.90;99.90
16700;DHT22;8466;52.286;21.124;2022-12-10T01:23:51;0.90;99.90
16700;DHT22;8466;52.286;21.124;2022-12-10T01:26:22;0.90;99.90
16700;DHT22;8466;52.286;21.124;2022-12-10T01:28:53;0.90;99.90
16700;DHT22;8466;52.286;21.124;2022-12-10T01:31:23;0.90;99.90
16700;DHT22;8466;52.286;21.124;2022-12-10T01:33:53;0.90;99.90
16700;DHT22;8466;52.286;21.124;2022-12-10T01:36:24;0.90;99.90
16700;DHT22;8466;52.286;21.124;2022-12-10T01:38:53;0.90;99.90
16700;DHT22;8466;52.286;21.124;2022-12-10T01:41:24;0.90;99.90
16700;DHT22;8466;52.286;21.124;2022-12-10T01:43:57;0.90;99.90
16700;DHT22;8466;52.286;21.124;2022-12-10T01:46:28;1.00;99.90
16700;DHT22;8466;52.286;21.124;2022-12-10T01:48:58;0.90;99.90
16700;DHT22;8466;52.286;21.124;2022-12-10T01:51:36;0.90;99.90
16700;DHT22;8466;52.286;21.124;2022-12-10T01:54:08;0.90;99.90
16700;DHT22;8466;52.286;21.124;2022-12-10T01:56:40;1.00;99.90
16700;DHT22;8466;52.286;21.124;2022-12-10T01:59:12;0.90;99.90
16700;DHT22;8466;52.286;21.124;2022-12-10T02:01:53;0.90;99.90
16700;DHT22;8466;52.286;21.124;2022-12-10T02:04:34;0.90;99.90
16700;DHT22;8466;52.286;21.124;2022-12-10T02:07:11;0.80;99.90
16700;DHT22;8466;52.286;21.124;2022-12-10T02:09:43;0.90;99.90
16700;DHT22;8466;52.286;21.124;2022-12-10T02:12:18;0.90;99.90
16700;DHT22;8466;52.286;21.124;2022-12-10T02:14:55;0.80;99.90
16700;DHT22;8466;52.286;21.124;2022-12-10T02:17:27;0.90;99.90
16700;DHT22;8466;52.286;21.124;2022-12-10T02:20:05;0.90;99.90
16700;DHT22;8466;52.286;21.124;2022-12-10T02:22:40;0.90;99.90
16700;DHT22;8466;52.286;21.124;2022-12-10T02:25:12;0.90;99.90
16700;DHT22;8466;52.286;21.124;2022-12-10T02:27:48;0.90;99.90
16700;DHT22;8466;52.286;21.124;2022-12-10T02:30:20;0.90;99.90
16700;DHT22;8466;52.286;21.124;2022-12-10T02:32:50;0.90;99.90
16700;DHT22;8466;52.286;21.124;2022-12-10T02:35:22;0.90;99.90
16700;DHT22;8466;52.286;21.124;2022-12-10T02:37:55;0.80;99.90
16700;DHT22;8466;52.286;21.124;2022-12-10T02:40:28;0.80;99.90
16700;DHT22;8466;52.286;21.124;2022-12-10T02:42:58;0.80;99.90
16700;DHT22;8466;52.286;21.124;2022-12-10T02:45:29;0.80;99.90
16700;DHT22;8466;52.286;21.124;2022-12-10T02:48:01;0.80;99.90
16700;DHT22;8466;52.286;21.124;2022-12-10T02:50:30;0.80;99.90
16700;DHT22;8466;52.286;21.124;2022-12-10T02:52:59;0.90;99.90
16700;DHT22;8466;52.286;21.124;2022-12-10T02:59:30;0.80;99.90
16700;DHT22;8466;52.286;21.124;2022-12-10T03:02:08;0.80;99.90
16700;DHT22;8466;52.286;21.124;2022-12-10T03:04:42;0.80;99.90
16700;DHT22;8466;52.286;21.124;2022-12-10T03:07:17;0.90;99.90
16700;DHT22;8466;52.286;21.124;2022-12-10T03:09:53;0.90;99.90
16700;DHT22;8466;52.286;21.124;2022-12-10T03:12:28;0.90;99.90
16700;DHT22;8466;52.286;21.124;2022-12-10T03:14:59;0.90;99.90
16700;DHT22;8466;52.286;21.124;2022-12-10T03:17:31;0.90;99.90
16700;DHT22;8466;52.286;21.124;2022-12-10T03:20:01;1.00;99.90
16700;DHT22;8466;52.286;21.124;2022-12-10T03:22:31;0.80;99.90
16700;DHT22;8466;52.286;21.124;2022-12-10T03:25:01;0.70;99.90
16700;DHT22;8466;52.286;21.124;2022-12-10T03:27:30;0.70;99.90
16700;DHT22;8466;52.286;21.124;2022-12-10T03:30:00;0.70;99.90
16700;DHT22;8466;52.286;21.124;2022-12-10T03:32:31;0.70;99.90
16700;DHT22;8466;52.286;21.124;2022-12-10T03:35:00;0.70;99.90
16700;DHT22;8466;52.286;21.124;2022-12-10T03:37:31;0.70;99.90
16700;DHT22;8466;52.286;21.124;2022-12-10T03:40:00;0.80;99.90
16700;DHT22;8466;52.286;21.124;2022-12-10T03:42:29;0.70;99.90
16700;DHT22;8466;52.286;21.124;2022-12-10T03:44:57;0.80;99.90
16700;DHT22;8466;52.286;21.124;2022-12-10T03:47:26;0.70;99.90
16700;DHT22;8466;52.286;21.124;2022-12-10T03:49:56;0.70;99.90
16700;DHT22;8466;52.286;21.124;2022-12-10T03:52:25;0.70;99.90
16700;DHT22;8466;52.286;21.124;2022-12-10T03:54:54;0.70;99.90
16700;DHT22;8466;52.286;21.124;2022-12-10T03:57:23;0.70;99.90
16700;DHT22;8466;52.286;21.124;2022-12-10T03:59:52;0.70;99.90
16700;DHT22;8466;52.286;21.124;2022-12-10T04:02:21;0.70;99.90
16700;DHT22;8466;52.286;21.124;2022-12-10T04:04:49;0.70;99.90
16700;DHT22;8466;52.286;21.124;2022-12-10T04:07:19;0.70;99.90
16700;DHT22;8466;52.286;21.124;2022-12-10T04:09:48;0.70;99.90
16700;DHT22;8466;52.286;21.124;2022-12-10T04:12:17;0.70;99.90
16700;DHT22;8466;52.286;21.124;2022-12-10T04:14:46;0.70;99.90
16700;DHT22;8466;52.286;21.124;2022-12-10T04:17:32;0.70;99.90
16700;DHT22;8466;52.286;21.124;2022-12-10T04:20:01;0.70;99.90
16700;DHT22;8466;52.286;21.124;2022-12-10T04:22:31;0.70;99.90
16700;DHT22;8466;52.286;21.124;2022-12-10T04:25:17;0.70;99.90
16700;DHT22;8466;52.286;21.124;2022-12-10T04:28:03;0.80;99.90
16700;DHT22;8466;52.286;21.124;2022-12-10T04:30:32;0.70;99.90
16700;DHT22;8466;52.286;21.124;2022-12-10T04:33:01;0.80;99.90
16700;DHT22;8466;52.286;21.124;2022-12-10T04:35:29;0.70;99.90
16700;DHT22;8466;52.286;21.124;2022-12-10T04:38:00;0.80;99.90
16700;DHT22;8466;52.286;21.124;2022-12-10T04:40:28;0.80;99.90
16700;DHT22;8466;52.286;21.124;2022-12-10T04:42:57;0.80;99.90
16700;DHT22;8466;52.286;21.124;2022-12-10T04:45:26;0.80;99.90
16700;DHT22;8466;52.286;21.124;2022-12-10T04:47:54;0.80;99.90
16700;DHT22;8466;52.286;21.124;2022-12-10T04:50:23;0.80;99.90
16700;DHT22;8466;52.286;21.124;2022-12-10T04:52:52;0.80;99.90
16700;DHT22;8466;52.286;21.124;2022-12-10T04:55:22;0.80;99.90
16700;DHT22;8466;52.286;21.124;2022-12-10T04:57:50;0.80;99.90
16700;DHT22;8466;52.286;21.124;2022-12-10T05:00:19;0.80;99.90
16700;DHT22;8466;52.286;21.124;2022-12-10T05:02:48;0.70;99.90
16700;DHT22;8466;52.286;21.124;2022-12-10T05:05:17;0.80;99.90
16700;DHT22;8466;52.286;21.124;2022-12-10T05:07:46;0.80;99.90
16700;DHT22;8466;52.286;21.124;2022-12-10T05:10:15;0.80;99.90
16700;DHT22;8466;52.286;21.124;2022-12-10T05:12:45;0.80;99.90
16700;DHT22;8466;52.286;21.124;2022-12-10T05:15:14;0.80;99.90
16700;DHT22;8466;52.286;21.124;2022-12-10T05:17:42;0.80;99.90
16700;DHT22;8466;52.286;21.124;2022-12-10T05:20:11;0.70;99.90
16700;DHT22;8466;52.286;21.124;2022-12-10T05:22:40;0.80;99.90
16700;DHT22;8466;52.286;21.124;2022-12-10T05:25:26;0.70;99.90
16700;DHT22;8466;52.286;21.124;2022-12-10T05:27:56;0.70;99.90
16700;DHT22;8466;52.286;21.124;2022-12-10T05:30:25;0.70;99.90
16700;DHT22;8466;52.286;21.124;2022-12-10T05:32:54;0.70;99.90
16700;DHT22;8466;52.286;21.124;2022-12-10T05:35:22;0.70;99.90
16700;DHT22;8466;52.286;21.124;2022-12-10T05:37:51;0.70;99.90
16700;DHT22;8466;52.286;21.124;2022-12-10T05:40:20;0.70;99.90
16700;DHT22;8466;52.286;21.124;2022-12-10T05:42:49;0.70;99.90
16700;DHT22;8466;52.286;21.124;2022-12-10T05:45:19;0.80;99.90
16700;DHT22;8466;52.286;21.124;2022-12-10T05:47:48;0.80;99.90
16700;DHT22;8466;52.286;21.124;2022-12-10T05:50:17;0.80;99.90
16700;DHT22;8466;52.286;21.124;2022-12-10T05:52:45;0.80;99.90
16700;DHT22;8466;52.286;21.124;2022-12-10T05:55:14;0.80;99.90
16700;DHT22;8466;52.286;21.124;2022-12-10T05:57:43;0.70;99.90
16700;DHT22;8466;52.286;21.124;2022-12-10T06:00:13;0.80;99.90
16700;DHT22;8466;52.286;21.124;2022-12-10T06:02:43;0.80;99.90
16700;DHT22;8466;52.286;21.124;2022-12-10T06:05:12;0.80;99.90
16700;DHT22;8466;52.286;21.124;2022-12-10T06:07:40;0.80;99.90
16700;DHT22;8466;52.286;21.124;2022-12-10T06:10:09;0.80;99.90
16700;DHT22;8466;52.286;21.124;2022-12-10T06:12:38;0.80;99.90
16700;DHT22;8466;52.286;21.124;2022-12-10T06:15:07;0.80;99.90
16700;DHT22;8466;52.286;21.124;2022-12-10T06:17:36;0.80;99.90
16700;DHT22;8466;52.286;21.124;2022-12-10T06:20:08;0.80;99.90
16700;DHT22;8466;52.286;21.124;2022-12-10T06:22:37;0.80;99.90
16700;DHT22;8466;52.286;21.124;2022-12-10T06:25:06;0.90;99.90
16700;DHT22;8466;52.286;21.124;2022-12-10T06:27:35;0.90;99.90
16700;DHT22;8466;52.286;21.124;2022-12-10T06:30:04;0.80;99.90
16700;DHT22;8466;52.286;21.124;2022-12-10T06:32:33;0.80;99.90
16700;DHT22;8466;52.286;21.124;2022-12-10T06:35:03;0.80;99.90
16700;DHT22;8466;52.286;21.124;2022-12-10T06:37:33;0.80;99.90
16700;DHT22;8466;52.286;21.124;2022-12-10T06:40:03;0.90;99.90
16700;DHT22;8466;52.286;21.124;2022-12-10T06:42:33;0.90;99.90
16700;DHT22;8466;52.286;21.124;2022-12-10T06:45:01;0.80;99.90
16700;DHT22;8466;52.286;21.124;2022-12-10T06:47:30;0.80;99.90
16700;DHT22;8466;52.286;21.124;2022-12-10T06:49:59;0.80;99.90
16700;DHT22;8466;52.286;21.124;2022-12-10T06:52:28;0.80;99.90
16700;DHT22;8466;52.286;21.124;2022-12-10T06:54:58;0.80;99.90
16700;DHT22;8466;52.286;21.124;2022-12-10T06:57:26;0.80;99.90
16700;DHT22;8466;52.286;21.124;2022-12-10T06:59:55;0.70;99.90
16700;DHT22;8466;52.286;21.124;2022-12-10T07:02:25;0.80;99.90
16700;DHT22;8466;52.286;21.124;2022-12-10T07:04:54;0.80;99.90
16700;DHT22;8466;52.286;21.124;2022-12-10T07:07:23;0.80;99.90
16700;DHT22;8466;52.286;21.124;2022-12-10T07:09:52;0.80;99.90
16700;DHT22;8466;52.286;21.124;2022-12-10T07:12:22;0.90;99.90
16700;DHT22;8466;52.286;21.124;2022-12-10T07:14:51;0.90;99.90
16700;DHT22;8466;52.286;21.124;2022-12-10T07:17:19;0.90;99.90
16700;DHT22;8466;52.286;21.124;2022-12-10T07:19:48;0.90;99.90
16700;DHT22;8466;52.286;21.124;2022-12-10T07:22:17;1.00;99.90
16700;DHT22;8466;52.286;21.124;2022-12-10T07:24:47;1.00;99.90
16700;DHT22;8466;52.286;21.124;2022-12-10T07:27:17;1.00;99.90
16700;DHT22;8466;52.286;21.124;2022-12-10T07:29:47;1.10;99.90
16700;DHT22;8466;52.286;21.124;2022-12-10T07:32:16;1.10;99.90
16700;DHT22;8466;52.286;21.124;2022-12-10T07:34:45;1.00;99.90
16700;DHT22;8466;52.286;21.124;2022-12-10T07:37:14;1.00;99.90
16700;DHT22;8466;52.286;21.124;2022-12-10T07:39:43;1.00;99.90
16700;DHT22;8466;52.286;21.124;2022-12-10T07:42:12;1.10;99.90
16700;DHT22;8466;52.286;21.124;2022-12-10T07:44:40;1.00;99.90
16700;DHT22;8466;52.286;21.124;2022-12-10T07:47:16;1.00;99.90
16700;DHT22;8466;52.286;21.124;2022-12-10T07:49:45;1.00;99.90
16700;DHT22;8466;52.286;21.124;2022-12-10T07:52:14;1.00;99.90
16700;DHT22;8466;52.286;21.124;2022-12-10T07:54:43;1.10;99.90
16700;DHT22;8466;52.286;21.124;2022-12-10T07:57:12;1.10;99.90
16700;DHT22;8466;52.286;21.124;2022-12-10T07:59:41;1.20;99.90
16700;DHT22;8466;52.286;21.124;2022-12-10T08:02:10;1.20;99.90
16700;DHT22;8466;52.286;21.124;2022-12-10T08:04:40;1.20;99.90
16700;DHT22;8466;52.286;21.124;2022-12-10T08:07:09;1.20;99.90
16700;DHT22;8466;52.286;21.124;2022-12-10T08:09:38;1.20;99.90
16700;DHT22;8466;52.286;21.124;2022-12-10T08:12:07;1.30;99.90
16700;DHT22;8466;52.286;21.124;2022-12-10T08:14:36;1.30;99.90
16700;DHT22;8466;52.286;21.124;2022-12-10T08:17:08;1.30;99.90
16700;DHT22;8466;52.286;21.124;2022-12-10T08:19:40;1.40;99.90
16700;DHT22;8466;52.286;21.124;2022-12-10T08:22:09;1.40;99.90
16700;DHT22;8466;52.286;21.124;2022-12-10T08:24:38;1.30;99.90
16700;DHT22;8466;52.286;21.124;2022-12-10T08:27:07;1.40;99.90
16700;DHT22;8466;52.286;21.124;2022-12-10T08:29:35;1.40;99.90
16700;DHT22;8466;52.286;21.124;2022-12-10T08:32:04;1.40;99.90
16700;DHT22;8466;52.286;21.124;2022-12-10T08:34:33;1.40;99.90
16700;DHT22;8466;52.286;21.124;2022-12-10T08:37:03;1.40;99.90
16700;DHT22;8466;52.286;21.124;2022-12-10T08:39:38;1.40;99.90
16700;DHT22;8466;52.286;21.124;2022-12-10T08:42:07;1.40;99.90
16700;DHT22;8466;52.286;21.124;2022-12-10T08:44:36;1.40;99.90
16700;DHT22;8466;52.286;21.124;2022-12-10T08:47:05;1.40;99.90
16700;DHT22;8466;52.286;21.124;2022-12-10T08:49:34;1.40;99.90
16700;DHT22;8466;52.286;21.124;2022-12-10T08:52:04;1.40;99.90
16700;DHT22;8466;52.286;21.124;2022-12-10T08:54:33;1.40;99.90
16700;DHT22;8466;52.286;21.124;2022-12-10T08:57:02;1.40;99.90
16700;DHT22;8466;52.286;21.124;2022-12-10T08:59:33;1.40;99.90
16700;DHT22;8466;52.286;21.124;2022-12-10T09:02:02;1.40;99.90
16700;DHT22;8466;52.286;21.124;2022-12-10T09:04:31;1.40;99.90
16700;DHT22;8466;52.286;21.124;2022-12-10T09:07:02;1.40;99.90
16700;DHT22;8466;52.286;21.124;2022-12-10T09:09:42;1.40;99.90
16700;DHT22;8466;52.286;21.124;2022-12-10T09:12:11;1.50;99.90
16700;DHT22;8466;52.286;21.124;2022-12-10T09:14:40;1.40;99.90
16700;DHT22;8466;52.286;21.124;2022-12-10T09:17:09;1.50;99.90
16700;DHT22;8466;52.286;21.124;2022-12-10T09:19:38;1.50;99.90
16700;DHT22;8466;52.286;21.124;2022-12-10T09:22:06;1.50;99.90
16700;DHT22;8466;52.286;21.124;2022-12-10T09:24:35;1.50;99.90
16700;DHT22;8466;52.286;21.124;2022-12-10T09:27:05;1.60;99.90
16700;DHT22;8466;52.286;21.124;2022-12-10T09:29:34;1.50;99.90
16700;DHT22;8466;52.286;21.124;2022-12-10T09:32:03;1.50;99.90
16700;DHT22;8466;52.286;21.124;2022-12-10T09:34:31;1.50;99.90
16700;DHT22;8466;52.286;21.124;2022-12-10T09:37:00;1.60;99.90
16700;DHT22;8466;52.286;21.124;2022-12-10T09:39:29;1.70;99.90
16700;DHT22;8466;52.286;21.124;2022-12-10T09:45:02;1.70;99.90
16700;DHT22;8466;52.286;21.124;2022-12-10T09:47:42;1.80;99.90
16700;DHT22;8466;52.286;21.124;2022-12-10T09:50:19;1.80;99.90
16700;DHT22;8466;52.286;21.124;2022-12-10T09:52:49;1.80;99.90
16700;DHT22;8466;52.286;21.124;2022-12-10T09:55:34;1.70;99.90
16700;DHT22;8466;52.286;21.124;2022-12-10T09:58:05;1.70;99.90
16700;DHT22;8466;52.286;21.124;2022-12-10T10:00:40;1.70;99.90
16700;DHT22;8466;52.286;21.124;2022-12-10T10:03:13;1.70;99.90
16700;DHT22;8466;52.286;21.124;2022-12-10T10:05:44;1.80;99.90
16700;DHT22;8466;52.286;21.124;2022-12-10T10:08:20;1.80;99.90
16700;DHT22;8466;52.286;21.124;2022-12-10T10:10:50;1.90;99.90
16700;DHT22;8466;52.286;21.124;2022-12-10T10:13:27;1.90;99.90
16700;DHT22;8466;52.286;21.124;2022-12-10T10:16:01;1.90;99.90
16700;DHT22;8466;52.286;21.124;2022-12-10T10:18:43;2.00;99.90
16700;DHT22;8466;52.286;21.124;2022-12-10T10:21:17;2.00;99.90
16700;DHT22;8466;52.286;21.124;2022-12-10T10:23:47;2.00;99.90
16700;DHT22;8466;52.286;21.124;2022-12-10T10:26:16;2.00;99.90
16700;DHT22;8466;52.286;21.124;2022-12-10T10:28:49;2.10;99.90
16700;DHT22;8466;52.286;21.124;2022-12-10T10:31:24;2.10;99.90
16700;DHT22;8466;52.286;21.124;2022-12-10T10:33:55;2.10;99.90
16700;DHT22;8466;52.286;21.124;2022-12-10T10:36:30;2.10;99.90
16700;DHT22;8466;52.286;21.124;2022-12-10T10:39:08;2.10;99.90
16700;DHT22;8466;52.286;21.124;2022-12-10T10:41:39;2.10;99.90
16700;DHT22;8466;52.286;21.124;2022-12-10T10:44:16;2.10;99.90
16700;DHT22;8466;52.286;21.124;2022-12-10T10:46:47;2.00;99.90
16700;DHT22;8466;52.286;21.124;2022-12-10T10:49:25;2.10;99.90
16700;DHT22;8466;52.286;21.124;2022-12-10T10:51:59;2.10;99.90
16700;DHT22;8466;52.286;21.124;2022-12-10T10:54:34;2.10;99.90
16700;DHT22;8466;52.286;21.124;2022-12-10T10:57:10;2.10;99.90
16700;DHT22;8466;52.286;21.124;2022-12-10T10:59:41;2.10;99.90
16700;DHT22;8466;52.286;21.124;2022-12-10T11:02:19;2.00;99.90
16700;DHT22;8466;52.286;21.124;2022-12-10T11:04:50;2.00;99.90
16700;DHT22;8466;52.286;21.124;2022-12-10T11:07:23;2.00;99.90
16700;DHT22;8466;52.286;21.124;2022-12-10T11:09:54;2.00;99.90
16700;DHT22;8466;52.286;21.124;2022-12-10T11:12:35;1.90;99.90
16700;DHT22;8466;52.286;21.124;2022-12-10T11:15:32;1.90;99.90
16700;DHT22;8466;52.286;21.124;2022-12-10T11:18:02;1.80;99.90
16700;DHT22;8466;52.286;21.124;2022-12-10T11:20:33;1.80;99.90
16700;DHT22;8466;52.286;21.124;2022-12-10T11:23:10;1.80;99.90
16700;DHT22;8466;52.286;21.124;2022-12-10T11:25:46;1.90;99.90
16700;DHT22;8466;52.286;21.124;2022-12-10T11:28:30;1.90;99.90
16700;DHT22;8466;52.286;21.124;2022-12-10T11:31:15;1.90;99.90
16700;DHT22;8466;52.286;21.124;2022-12-10T11:33:54;1.90;99.90
16700;DHT22;8466;52.286;21.124;2022-12-10T11:36:32;1.90;99.90
16700;DHT22;8466;52.286;21.124;2022-12-10T11:39:15;1.80;99.90
16700;DHT22;8466;52.286;21.124;2022-12-10T11:41:52;1.90;99.90
16700;DHT22;8466;52.286;21.124;2022-12-10T11:44:34;1.90;99.90
16700;DHT22;8466;52.286;21.124;2022-12-10T11:47:22;1.90;99.90
16700;DHT22;8466;52.286;21.124;2022-12-10T11:50:07;2.00;99.90
16700;DHT22;8466;52.286;21.124;2022-12-10T11:52:50;2.00;99.90
16700;DHT22;8466;52.286;21.124;2022-12-10T11:55:35;2.10;99.90
16700;DHT22;8466;52.286;21.124;2022-12-10T11:58:29;2.20;99.90
16700;DHT22;8466;52.286;21.124;2022-12-10T12:01:06;2.10;99.90
16700;DHT22;8466;52.286;21.124;2022-12-10T12:03:51;2.10;99.90
16700;DHT22;8466;52.286;21.124;2022-12-10T12:09:24;2.00;99.90
16700;DHT22;8466;52.286;21.124;2022-12-10T12:12:07;1.90;99.90
16700;DHT22;8466;52.286;21.124;2022-12-10T12:14:43;1.90;99.90
16700;DHT22;8466;52.286;21.124;2022-12-10T12:17:19;1.90;99.90
16700;DHT22;8466;52.286;21.124;2022-12-10T12:19:53;1.90;99.90
16700;DHT22;8466;52.286;21.124;2022-12-10T12:22:25;1.90;99.90
16700;DHT22;8466;52.286;21.124;2022-12-10T12:24:57;1.90;99.90
16700;DHT22;8466;52.286;21.124;2022-12-10T12:27:30;1.90;99.90
16700;DHT22;8466;52.286;21.124;2022-12-10T12:30:05;1.90;99.90
16700;DHT22;8466;52.286;21.124;2022-12-10T12:32:43;1.90;99.90
16700;DHT22;8466;52.286;21.124;2022-12-10T12:35:19;1.80;99.90
16700;DHT22;8466;52.286;21.124;2022-12-10T12:37:54;1.80;99.90
16700;DHT22;8466;52.286;21.124;2022-12-10T12:40:29;1.80;99.90
16700;DHT22;8466;52.286;21.124;2022-12-10T12:43:01;1.80;99.90
16700;DHT22;8466;52.286;21.124;2022-12-10T12:45:34;1.80;99.90
16700;DHT22;8466;52.286;21.124;2022-12-10T12:48:17;1.80;99.90
16700;DHT22;8466;52.286;21.124;2022-12-10T12:50:52;1.90;99.90
16700;DHT22;8466;52.286;21.124;2022-12-10T12:53:23;1.80;99.90
16700;DHT22;8466;52.286;21.124;2022-12-10T12:56:04;1.70;99.90
16700;DHT22;8466;52.286;21.124;2022-12-10T12:58:39;1.70;99.90
16700;DHT22;8466;52.286;21.124;2022-12-10T13:01:18;1.70;99.90
16700;DHT22;8466;52.286;21.124;2022-12-10T13:03:50;1.60;99.90
16700;DHT22;8466;52.286;21.124;2022-12-10T13:06:23;1.60;99.90
16700;DHT22;8466;52.286;21.124;2022-12-10T13:09:15;1.50;99.90
16700;DHT22;8466;52.286;21.124;2022-12-10T13:11:45;1.50;99.90
16700;DHT22;8466;52.286;21.124;2022-12-10T13:14:34;1.50;99.90
16700;DHT22;8466;52.286;21.124;2022-12-10T13:17:27;1.50;99.90
16700;DHT22;8466;52.286;21.124;2022-12-10T13:22:57;1.50;99.90
16700;DHT22;8466;52.286;21.124;2022-12-10T13:25:41;1.50;99.90
16700;DHT22;8466;52.286;21.124;2022-12-10T13:28:29;1.40;99.90
16700;DHT22;8466;52.286;21.124;2022-12-10T13:31:21;1.40;99.90
16700;DHT22;8466;52.286;21.124;2022-12-10T13:33:53;1.40;99.90
16700;DHT22;8466;52.286;21.124;2022-12-10T13:36:35;1.40;99.90
16700;DHT22;8466;52.286;21.124;2022-12-10T13:39:21;1.30;99.90
16700;DHT22;8466;52.286;21.124;2022-12-10T13:42:25;1.40;99.90
16700;DHT22;8466;52.286;21.124;2022-12-10T13:45:31;1.40;99.90
16700;DHT22;8466;52.286;21.124;2022-12-10T13:48:16;1.40;99.90
16700;DHT22;8466;52.286;21.124;2022-12-10T13:50:49;1.40;99.90
16700;DHT22;8466;52.286;21.124;2022-12-10T13:53:24;1.40;99.90
16700;DHT22;8466;52.286;21.124;2022-12-10T13:56:07;1.40;99.90
16700;DHT22;8466;52.286;21.124;2022-12-10T13:58:43;1.40;99.90
16700;DHT22;8466;52.286;21.124;2022-12-10T14:01:20;1.40;99.90
16700;DHT22;8466;52.286;21.124;2022-12-10T14:06:55;1.40;99.90
16700;DHT22;8466;52.286;21.124;2022-12-10T14:09:26;1.40;99.90
16700;DHT22;8466;52.286;21.124;2022-12-10T14:12:01;1.40;99.90
16700;DHT22;8466;52.286;21.124;2022-12-10T14:14:33;1.40;99.90
16700;DHT22;8466;52.286;21.124;2022-12-10T14:17:04;1.40;99.90
16700;DHT22;8466;52.286;21.124;2022-12-10T14:19:35;1.40;99.90
16700;DHT22;8466;52.286;21.124;2022-12-10T14:22:05;1.40;99.90
16700;DHT22;8466;52.286;21.124;2022-12-10T14:24:36;1.40;99.90
16700;DHT22;8466;52.286;21.124;2022-12-10T14:27:15;1.40;99.90
16700;DHT22;8466;52.286;21.124;2022-12-10T14:29:45;1.40;99.90
16700;DHT22;8466;52.286;21.124;2022-12-10T14:32:16;1.30;99.90
16700;DHT22;8466;52.286;21.124;2022-12-10T14:34:48;1.40;99.90
16700;DHT22;8466;52.286;21.124;2022-12-10T14:37:21;1.30;99.90
16700;DHT22;8466;52.286;21.124;2022-12-10T14:39:52;1.20;99.90
16700;DHT22;8466;52.286;21.124;2022-12-10T14:42:23;1.20;99.90
16700;DHT22;8466;52.286;21.124;2022-12-10T14:44:56;1.20;99.90
16700;DHT22;8466;52.286;21.124;2022-12-10T14:47:25;1.20;99.90
16700;DHT22;8466;52.286;21.124;2022-12-10T14:49:55;1.20;99.90
16700;DHT22;8466;52.286;21.124;2022-12-10T14:52:30;1.20;99.90
16700;DHT22;8466;52.286;21.124;2022-12-10T14:55:02;1.20;99.90
16700;DHT22;8466;52.286;21.124;2022-12-10T14:57:35;1.20;99.90
16700;DHT22;8466;52.286;21.124;2022-12-10T15:00:10;1.20;99.90
16700;DHT22;8466;52.286;21.124;2022-12-10T15:02:42;1.20;99.90
16700;DHT22;8466;52.286;21.124;2022-12-10T15:05:15;1.20;99.90
16700;DHT22;8466;52.286;21.124;2022-12-10T15:07:51;1.20;99.90
16700;DHT22;8466;52.286;21.124;2022-12-10T15:10:23;1.20;99.90
16700;DHT22;8466;52.286;21.124;2022-12-10T15:12:55;1.20;99.90
16700;DHT22;8466;52.286;21.124;2022-12-10T15:15:28;1.10;99.90
16700;DHT22;8466;52.286;21.124;2022-12-10T15:18:00;1.10;99.90
16700;DHT22;8466;52.286;21.124;2022-12-10T15:20:35;1.20;99.90
16700;DHT22;8466;52.286;21.124;2022-12-10T15:23:18;1.20;99.90
16700;DHT22;8466;52.286;21.124;2022-12-10T15:25:51;1.20;99.90
16700;DHT22;8466;52.286;21.124;2022-12-10T15:28:27;1.10;99.90
16700;DHT22;8466;52.286;21.124;2022-12-10T15:30:57;1.10;99.90
16700;DHT22;8466;52.286;21.124;2022-12-10T15:33:31;1.00;99.90
16700;DHT22;8466;52.286;21.124;2022-12-10T15:36:00;1.00;99.90
16700;DHT22;8466;52.286;21.124;2022-12-10T15:38:29;1.00;99.90
16700;DHT22;8466;52.286;21.124;2022-12-10T15:40:59;0.90;99.90
16700;DHT22;8466;52.286;21.124;2022-12-10T15:43:30;0.90;99.90
16700;DHT22;8466;52.286;21.124;2022-12-10T15:45:59;0.90;99.90
16700;DHT22;8466;52.286;21.124;2022-12-10T15:48:29;0.90;99.90
16700;DHT22;8466;52.286;21.124;2022-12-10T15:50:58;0.90;99.90
16700;DHT22;8466;52.286;21.124;2022-12-10T15:53:34;0.90;99.90
16700;DHT22;8466;52.286;21.124;2022-12-10T15:56:04;0.80;99.90
16700;DHT22;8466;52.286;21.124;2022-12-10T15:58:35;0.80;99.90
16700;DHT22;8466;52.286;21.124;2022-12-10T16:01:03;0.80;99.90
16700;DHT22;8466;52.286;21.124;2022-12-10T16:03:32;0.80;99.90
16700;DHT22;8466;52.286;21.124;2022-12-10T16:06:04;0.80;99.90
16700;DHT22;8466;52.286;21.124;2022-12-10T16:08:32;0.80;99.90
16700;DHT22;8466;52.286;21.124;2022-12-10T16:11:06;0.80;99.90
16700;DHT22;8466;52.286;21.124;2022-12-10T16:13:45;0.80;99.90
16700;DHT22;8466;52.286;21.124;2022-12-10T16:16:16;0.80;99.90
16700;DHT22;8466;52.286;21.124;2022-12-10T16:18:46;0.80;99.90
16700;DHT22;8466;52.286;21.124;2022-12-10T16:21:15;0.90;99.90
16700;DHT22;8466;52.286;21.124;2022-12-10T16:23:44;0.80;99.90
16700;DHT22;8466;52.286;21.124;2022-12-10T16:26:15;0.80;99.90
16700;DHT22;8466;52.286;21.124;2022-12-10T16:28:47;0.90;99.90
16700;DHT22;8466;52.286;21.124;2022-12-10T16:31:18;0.80;99.90
16700;DHT22;8466;52.286;21.124;2022-12-10T16:33:47;0.90;99.90
16700;DHT22;8466;52.286;21.124;2022-12-10T16:36:18;0.80;99.90
16700;DHT22;8466;52.286;21.124;2022-12-10T16:38:48;0.80;99.90